Time;durP1;ratioP1;P1;durP2;ratioP2;P2;SDS_P1;SDS_P2;PMS_P1;PMS_P2;Temp;Humidity;BMP_temperature;BMP_pressure;BME280_temperature;BME280_humidity;BME280_pressure;Samples;Min_cycle;Max_cycle;Signal;HPM_P1;HPM_P2
2022/08/07 00:00:59;;;;;;;6.40;4.85;;;12.20;99.90;;;;;;5017522;28;20042;-90
2022/08/07 00:03:27;;;;;;;6.93;5.30;;;12.20;99.90;;;;;;5016814;28;20057;-89
2022/08/07 00:05:52;;;;;;;9.63;6.15;;;12.20;99.90;;;;;;5017050;28;20405;-90
2022/08/07 00:08:19;;;;;;;7.88;6.28;;;12.20;99.90;;;;;;5017114;28;20053;-92
2022/08/07 00:10:44;;;;;;;9.68;6.68;;;12.00;99.90;;;;;;5033789;28;20481;-88
2022/08/07 00:13:10;;;;;;;12.10;5.72;;;12.00;99.90;;;;;;5033168;28;20056;-90
2022/08/07 00:15:36;;;;;;;7.20;5.70;;;11.90;99.90;;;;;;5032953;28;20072;-89
2022/08/07 00:18:02;;;;;;;9.02;5.50;;;11.90;99.90;;;;;;5016846;28;20572;-90
2022/08/07 00:20:27;;;;;;;9.27;5.35;;;12.00;99.90;;;;;;5033266;28;20057;-90
2022/08/07 00:22:53;;;;;;;7.20;5.30;;;11.90;99.90;;;;;;5017337;28;20053;-89
2022/08/07 00:25:18;;;;;;;6.35;5.10;;;12.00;99.90;;;;;;5033101;28;20041;-89
2022/08/07 00:27:44;;;;;;;7.88;5.25;;;11.90;99.90;;;;;;5016982;28;20042;-90
2022/08/07 00:30:10;;;;;;;7.07;5.38;;;11.90;99.90;;;;;;5002569;28;20582;-90
2022/08/07 00:32:36;;;;;;;6.40;5.28;;;11.90;99.90;;;;;;5016657;28;20095;-89
2022/08/07 00:35:01;;;;;;;6.82;5.07;;;11.90;99.90;;;;;;5016485;28;20092;-90
2022/08/07 00:37:27;;;;;;;6.78;4.85;;;11.90;99.90;;;;;;5016131;28;20161;-90
2022/08/07 00:39:53;;;;;;;8.27;5.63;;;11.80;99.90;;;;;;5016910;28;20048;-89
2022/08/07 00:42:19;;;;;;;9.55;5.10;;;11.80;99.90;;;;;;5032939;28;20046;-90
2022/08/07 00:44:44;;;;;;;6.07;5.00;;;11.80;99.90;;;;;;5000581;28;20393;-89
2022/08/07 00:47:10;;;;;;;6.53;4.95;;;11.80;99.90;;;;;;5032853;28;20045;-88
2022/08/07 00:49:36;;;;;;;6.60;5.15;;;11.80;99.90;;;;;;4995715;28;20061;-90
2022/08/07 00:52:05;;;;;;;7.15;5.45;;;11.80;99.90;;;;;;5013242;28;20046;-90
2022/08/07 00:54:31;;;;;;;6.75;5.18;;;11.70;99.90;;;;;;4980000;28;20065;-88
2022/08/07 00:56:59;;;;;;;7.07;5.38;;;11.80;99.90;;;;;;4997080;28;20137;-89
2022/08/07 00:59:25;;;;;;;7.40;5.25;;;11.70;99.90;;;;;;4990038;28;20111;-89
2022/08/07 01:01:50;;;;;;;6.57;5.35;;;11.70;99.90;;;;;;4999724;28;20432;-90
2022/08/07 01:04:16;;;;;;;8.32;5.13;;;11.70;99.90;;;;;;4999641;28;20052;-89
2022/08/07 01:06:42;;;;;;;6.93;5.50;;;11.70;99.90;;;;;;5032283;28;20042;-89
2022/08/07 01:09:07;;;;;;;6.40;5.00;;;11.60;99.90;;;;;;5032892;28;20045;-91
2022/08/07 01:11:33;;;;;;;9.00;5.45;;;11.60;99.90;;;;;;5015556;28;20104;-91
2022/08/07 01:13:59;;;;;;;6.75;5.07;;;11.60;99.90;;;;;;5016611;28;20049;-91
2022/08/07 01:16:25;;;;;;;6.53;5.13;;;11.60;99.90;;;;;;5016514;28;20095;-91
2022/08/07 01:18:50;;;;;;;6.75;5.43;;;11.60;99.90;;;;;;5016854;28;20092;-90
2022/08/07 01:21:23;;;;;;;8.68;5.80;;;11.60;99.90;;;;;;5015923;28;20410;-88
2022/08/07 01:23:49;;;;;;;6.72;5.63;;;11.60;99.90;;;;;;5033014;28;20453;-88
2022/08/07 01:26:15;;;;;;;7.30;5.28;;;11.50;99.90;;;;;;4999387;28;20176;-89
2022/08/07 01:28:44;;;;;;;7.78;5.72;;;11.50;99.90;;;;;;5015013;28;20049;-87
2022/08/07 01:31:09;;;;;;;8.32;5.88;;;11.50;99.90;;;;;;4998928;28;20107;-89
2022/08/07 01:33:35;;;;;;;7.13;5.50;;;11.70;99.90;;;;;;5015169;28;20139;-88
2022/08/07 01:36:01;;;;;;;6.45;5.55;;;11.40;99.90;;;;;;4999196;28;20187;-89
2022/08/07 01:38:27;;;;;;;8.13;6.00;;;11.40;99.90;;;;;;5015343;28;20085;-88
2022/08/07 01:41:00;;;;;;;8.82;5.70;;;11.40;99.90;;;;;;5014925;28;20037;-88
2022/08/07 01:43:26;;;;;;;8.98;6.15;;;11.40;99.90;;;;;;4998568;28;20049;-89
2022/08/07 01:45:52;;;;;;;7.75;6.05;;;11.40;99.90;;;;;;5015662;28;20103;-89
2022/08/07 01:48:18;;;;;;;8.85;6.15;;;11.40;99.90;;;;;;5031306;28;20485;-88
2022/08/07 01:50:46;;;;;;;9.30;6.85;;;11.40;99.90;;;;;;5014609;28;20037;-88
2022/08/07 01:53:11;;;;;;;7.97;6.45;;;11.40;99.90;;;;;;5014963;28;20049;-89
2022/08/07 01:55:41;;;;;;;9.23;6.30;;;11.40;99.90;;;;;;5030870;28;20053;-88
2022/08/07 01:58:09;;;;;;;9.27;6.60;;;11.30;99.90;;;;;;4998429;28;20049;-88
2022/08/07 02:00:34;;;;;;;10.85;5.97;;;11.40;99.90;;;;;;4998308;28;20092;-87
2022/08/07 02:03:07;;;;;;;9.85;6.65;;;11.30;99.90;;;;;;5014379;28;20081;-88
2022/08/07 02:05:37;;;;;;;8.85;6.63;;;11.30;99.90;;;;;;5014397;28;20053;-88
2022/08/07 02:08:07;;;;;;;8.60;5.57;;;11.30;99.90;;;;;;4998330;28;20045;-88
2022/08/07 02:10:33;;;;;;;7.53;5.80;;;11.30;99.90;;;;;;4998856;28;20048;-88
2022/08/07 02:12:59;;;;;;;9.48;7.13;;;11.30;99.90;;;;;;4998743;28;20041;-89
2022/08/07 02:15:25;;;;;;;9.60;6.47;;;11.20;99.90;;;;;;4982610;28;20049;-88
2022/08/07 02:17:51;;;;;;;10.55;6.63;;;11.20;99.90;;;;;;4998618;28;20057;-88
2022/08/07 02:20:17;;;;;;;9.63;7.13;;;11.10;99.90;;;;;;4999726;28;20050;-88
2022/08/07 02:22:43;;;;;;;11.45;6.78;;;11.20;99.90;;;;;;4998650;28;20563;-90
2022/08/07 02:25:09;;;;;;;9.07;6.80;;;11.20;99.90;;;;;;5015606;28;20053;-89
2022/08/07 02:27:35;;;;;;;10.13;6.65;;;11.10;99.90;;;;;;4997898;28;20520;-89
2022/08/07 02:30:01;;;;;;;9.43;6.13;;;11.10;99.90;;;;;;4982712;28;20054;-90
2022/08/07 02:32:27;;;;;;;8.05;5.68;;;11.00;99.90;;;;;;5000001;28;20067;-88
2022/08/07 02:34:53;;;;;;;7.97;6.13;;;11.00;99.90;;;;;;4999939;28;20045;-89
2022/08/07 02:37:19;;;;;;;6.82;5.57;;;11.00;99.90;;;;;;4984698;28;20072;-88
2022/08/07 02:39:45;;;;;;;8.55;6.32;;;11.00;99.90;;;;;;4982996;28;20049;-89
2022/08/07 02:42:10;;;;;;;9.93;6.05;;;11.00;99.90;;;;;;5003715;28;20049;-88
2022/08/07 02:44:36;;;;;;;9.32;5.88;;;11.00;99.90;;;;;;5000684;28;20045;-88
2022/08/07 02:47:02;;;;;;;7.05;5.78;;;11.00;99.90;;;;;;4982094;28;20115;-88
2022/08/07 02:49:28;;;;;;;10.80;6.18;;;10.90;99.90;;;;;;4981925;28;20111;-89
2022/08/07 02:51:55;;;;;;;7.65;5.78;;;10.90;99.90;;;;;;4965079;28;20103;-89
2022/08/07 02:54:20;;;;;;;7.72;5.38;;;10.90;99.90;;;;;;4981864;28;20456;-88
2022/08/07 02:56:46;;;;;;;10.07;5.72;;;10.90;99.90;;;;;;4980922;28;20053;-88
2022/08/07 02:59:13;;;;;;;7.80;5.85;;;10.90;99.90;;;;;;4981870;28;20057;-89
2022/08/07 03:01:39;;;;;;;7.28;5.50;;;10.80;99.90;;;;;;4965451;28;20053;-89
2022/08/07 03:04:05;;;;;;;9.15;5.97;;;10.80;99.90;;;;;;4981960;28;20053;-89
2022/08/07 03:06:31;;;;;;;7.55;5.60;;;10.80;99.90;;;;;;4981836;28;20053;-89
2022/08/07 03:08:57;;;;;;;7.28;5.68;;;10.80;99.90;;;;;;4981890;28;20242;-90
2022/08/07 03:11:22;;;;;;;7.90;6.13;;;10.80;99.90;;;;;;4982197;28;20766;-90
2022/08/07 03:13:48;;;;;;;8.70;5.95;;;10.80;99.90;;;;;;4998454;28;20051;-89
2022/08/07 03:16:17;;;;;;;7.50;5.93;;;10.80;99.90;;;;;;4983991;28;20132;-89
2022/08/07 03:18:42;;;;;;;9.52;5.70;;;10.70;99.90;;;;;;4998193;28;20076;-89
2022/08/07 03:21:08;;;;;;;8.75;5.75;;;10.70;99.90;;;;;;4966059;28;20041;-91
2022/08/07 03:23:34;;;;;;;8.20;6.38;;;10.70;99.90;;;;;;4982813;28;20053;-90
2022/08/07 03:26:00;;;;;;;7.47;5.65;;;10.70;99.90;;;;;;4966838;28;20046;-89
2022/08/07 03:28:25;;;;;;;8.18;6.00;;;10.60;99.90;;;;;;4965713;28;20068;-90
2022/08/07 03:31:17;;;;;;;9.35;5.82;;;10.60;99.90;;;;;;4997458;28;20045;-89
2022/08/07 03:33:37;;;;;;;11.48;6.10;;;10.60;99.90;;;;;;5000019;28;20146;-91
2022/08/07 03:36:03;;;;;;;11.07;6.35;;;10.60;99.90;;;;;;4981371;28;20076;-91
2022/08/07 03:38:28;;;;;;;8.70;6.20;;;10.60;99.90;;;;;;4981888;28;20079;-91
2022/08/07 03:40:55;;;;;;;10.45;6.05;;;10.60;99.90;;;;;;4982123;28;20053;-90
2022/08/07 03:43:20;;;;;;;9.25;6.90;;;10.50;99.90;;;;;;4982686;28;20053;-91
2022/08/07 03:45:46;;;;;;;9.30;6.25;;;10.50;99.90;;;;;;4997534;28;20041;-91
2022/08/07 03:48:12;;;;;;;9.68;6.18;;;10.50;99.90;;;;;;4966887;28;20048;-91
2022/08/07 03:50:37;;;;;;;11.10;6.63;;;10.50;99.90;;;;;;4981588;28;20052;-90
2022/08/07 03:53:03;;;;;;;11.02;6.30;;;10.50;99.90;;;;;;4981855;28;20100;-91
2022/08/07 03:55:29;;;;;;;8.55;6.25;;;10.50;99.90;;;;;;4997750;28;20049;-89
2022/08/07 03:57:54;;;;;;;8.80;6.20;;;10.40;99.90;;;;;;4980552;28;20041;-89
2022/08/07 04:00:20;;;;;;;9.85;6.28;;;10.40;99.90;;;;;;4997820;28;20188;-91
2022/08/07 04:02:46;;;;;;;8.10;5.70;;;10.40;99.90;;;;;;4997653;28;20057;-90
2022/08/07 04:05:11;;;;;;;9.80;6.20;;;10.40;99.90;;;;;;4980585;28;20132;-91
2022/08/07 04:07:37;;;;;;;9.70;5.60;;;10.40;99.90;;;;;;4982428;28;20049;-89
2022/08/07 04:10:03;;;;;;;8.75;5.95;;;10.40;99.90;;;;;;5012991;28;20045;-90
2022/08/07 04:12:29;;;;;;;8.25;6.65;;;10.40;99.90;;;;;;4998005;28;20092;-90
2022/08/07 04:14:55;;;;;;;10.15;6.35;;;10.40;99.90;;;;;;4964545;28;20068;-88
2022/08/07 04:17:21;;;;;;;9.35;6.90;;;10.40;99.90;;;;;;4981262;28;20068;-88
2022/08/07 04:19:47;;;;;;;8.88;6.60;;;10.50;99.90;;;;;;4980423;28;20041;-89
2022/08/07 04:22:13;;;;;;;9.40;6.97;;;10.50;99.90;;;;;;4980772;28;20107;-89
2022/08/07 04:24:39;;;;;;;10.23;6.75;;;10.50;99.90;;;;;;4997258;28;20483;-87
2022/08/07 04:27:04;;;;;;;13.20;6.70;;;10.50;99.90;;;;;;4979960;28;20592;-89
2022/08/07 04:29:30;;;;;;;11.18;7.03;;;10.60;99.90;;;;;;4980719;28;20489;-89
2022/08/07 04:31:56;;;;;;;8.27;6.65;;;10.60;99.90;;;;;;4996388;28;20533;-89
2022/08/07 04:34:22;;;;;;;8.15;5.88;;;10.70;99.90;;;;;;4980860;28;20385;-89
2022/08/07 04:36:47;;;;;;;8.25;6.25;;;10.80;99.90;;;;;;4996701;28;20499;-88
2022/08/07 04:39:13;;;;;;;8.82;5.80;;;10.80;99.90;;;;;;5011729;28;20056;-88
2022/08/07 04:41:39;;;;;;;10.18;6.45;;;11.00;99.90;;;;;;5011934;28;20068;-88
2022/08/07 04:44:04;;;;;;;7.88;5.78;;;11.30;99.90;;;;;;4995594;28;20061;-86
2022/08/07 04:47:10;;;;;;;10.88;7.18;;;11.90;99.90;;;;;;4966463;28;20408;-86
2022/08/07 04:49:38;;;;;;;8.50;5.82;;;12.60;99.90;;;;;;4939699;28;20057;-86
2022/08/07 04:52:17;;;;;;;8.70;6.05;;;13.10;99.90;;;;;;4938729;28;20446;-86
2022/08/07 04:55:00;;;;;;;9.02;6.20;;;13.80;99.90;;;;;;4990451;28;20136;-87
2022/08/07 04:57:41;;;;;;;7.25;5.63;;;14.30;99.90;;;;;;5001709;28;20187;-86
2022/08/07 05:00:24;;;;;;;7.00;5.75;;;15.10;99.90;;;;;;4966974;28;20124;-87
2022/08/07 05:03:10;;;;;;;7.90;6.30;;;15.40;99.90;;;;;;4985203;28;20447;-87
2022/08/07 05:05:50;;;;;;;7.75;5.88;;;16.00;99.90;;;;;;4984231;28;20135;-86
2022/08/07 05:08:30;;;;;;;6.35;5.63;;;16.10;99.90;;;;;;4982450;28;20125;-89
2022/08/07 05:11:04;;;;;;;6.55;5.60;;;16.40;99.90;;;;;;4992294;28;20104;-88
2022/08/07 05:13:35;;;;;;;5.90;5.30;;;16.80;99.90;;;;;;4975964;28;20071;-88
2022/08/07 05:16:03;;;;;;;6.03;5.43;;;17.10;99.90;;;;;;4967678;28;20049;-89
2022/08/07 05:18:29;;;;;;;5.85;5.25;;;17.40;99.90;;;;;;4982972;28;20060;-87
2022/08/07 05:21:01;;;;;;;7.25;5.25;;;17.80;99.90;;;;;;4981388;28;20049;-87
2022/08/07 05:23:31;;;;;;;9.75;6.55;;;18.10;99.90;;;;;;4950651;28;20115;-87
2022/08/07 05:25:57;;;;;;;6.65;5.75;;;18.20;99.90;;;;;;4963347;28;20058;-90
2022/08/07 05:28:23;;;;;;;6.85;5.35;;;18.30;99.90;;;;;;4963273;28;20100;-89
2022/08/07 05:30:49;;;;;;;6.65;5.95;;;18.60;99.90;;;;;;4963835;28;20057;-87
2022/08/07 05:33:15;;;;;;;6.57;5.72;;;19.00;99.90;;;;;;4980029;28;20545;-87
2022/08/07 05:35:41;;;;;;;6.93;5.93;;;19.40;99.90;;;;;;4998490;28;20132;-91
2022/08/07 05:38:07;;;;;;;6.88;6.18;;;19.80;99.90;;;;;;5015047;28;20478;-90
2022/08/07 05:40:33;;;;;;;7.22;6.53;;;20.00;99.90;;;;;;4982615;28;20041;-87
2022/08/07 05:42:59;;;;;;;8.13;6.20;;;20.10;99.90;;;;;;4966005;28;20454;-85
2022/08/07 05:45:25;;;;;;;6.45;5.88;;;20.40;99.90;;;;;;4997756;28;20084;-88
2022/08/07 05:47:51;;;;;;;7.07;6.40;;;21.00;99.90;;;;;;4997896;28;20505;-86
2022/08/07 05:50:17;;;;;;;6.75;6.03;;;20.60;99.90;;;;;;4981886;28;20053;-86
2022/08/07 05:52:42;;;;;;;7.32;6.25;;;20.50;99.90;;;;;;4966392;28;20053;-86
2022/08/07 05:55:08;;;;;;;7.63;6.93;;;20.80;99.90;;;;;;4982234;28;20049;-86
2022/08/07 05:57:35;;;;;;;7.95;7.15;;;20.70;99.90;;;;;;4997972;28;20045;-86
2022/08/07 06:00:01;;;;;;;7.60;6.80;;;21.20;99.90;;;;;;4965888;28;20136;-86
2022/08/07 06:02:29;;;;;;;9.02;7.13;;;21.40;99.90;;;;;;4982048;28;20160;-86
2022/08/07 06:04:58;;;;;;;7.55;6.82;;;22.00;99.90;;;;;;4981716;28;20482;-86
2022/08/07 06:07:24;;;;;;;7.93;7.10;;;21.70;99.90;;;;;;4996019;28;20046;-86
2022/08/07 06:09:49;;;;;;;7.25;6.57;;;22.20;99.90;;;;;;4998173;28;20041;-87
2022/08/07 06:12:15;;;;;;;7.47;6.78;;;22.60;99.90;;;;;;4997263;28;20059;-86
2022/08/07 06:14:41;;;;;;;8.27;7.40;;;22.30;99.90;;;;;;5014083;28;20045;-87
2022/08/07 06:17:08;;;;;;;7.20;6.50;;;22.50;99.90;;;;;;4997091;28;20115;-87
2022/08/07 06:19:34;;;;;;;7.07;6.40;;;22.50;99.90;;;;;;4998103;28;20123;-86
2022/08/07 06:22:00;;;;;;;7.60;6.90;;;23.40;99.90;;;;;;4997677;28;20077;-87
2022/08/07 06:24:26;;;;;;;7.13;6.43;;;23.60;99.90;;;;;;4981134;28;20071;-87
2022/08/07 06:26:52;;;;;;;8.23;6.72;;;23.70;99.90;;;;;;4996977;28;21000;-87
2022/08/07 06:29:17;;;;;;;10.25;7.18;;;23.60;99.90;;;;;;4997180;28;20049;-87
2022/08/07 06:31:43;;;;;;;7.35;6.60;;;23.50;99.90;;;;;;5014427;28;20056;-88
2022/08/07 06:34:09;;;;;;;7.32;6.45;;;24.00;99.90;;;;;;4980902;28;20148;-87
2022/08/07 06:36:35;;;;;;;7.07;6.38;;;24.30;99.90;;;;;;4997316;28;20461;-88
2022/08/07 06:39:01;;;;;;;6.30;5.80;;;24.30;99.90;;;;;;4996879;28;20131;-87
2022/08/07 06:41:35;;;;;;;6.65;6.05;;;23.90;99.90;;;;;;5030616;28;20714;-87
2022/08/07 06:44:00;;;;;;;6.60;6.00;;;24.50;99.40;;;;;;4995461;28;20061;-88
2022/08/07 06:46:26;;;;;;;6.75;6.05;;;24.50;99.20;;;;;;4978790;28;20475;-88
2022/08/07 06:48:51;;;;;;;6.03;5.53;;;24.00;99.00;;;;;;4977004;28;20041;-87
2022/08/07 06:51:21;;;;;;;6.38;5.78;;;24.80;99.10;;;;;;4979638;28;20046;-88
2022/08/07 06:53:46;;;;;;;5.88;5.32;;;24.80;99.40;;;;;;4960995;28;20045;-88
2022/08/07 06:56:12;;;;;;;7.28;5.70;;;24.60;98.90;;;;;;4945240;28;20076;-88
2022/08/07 06:58:38;;;;;;;5.03;4.60;;;24.80;99.50;;;;;;4945000;28;20124;-88
2022/08/07 07:01:08;;;;;;;6.30;4.88;;;24.90;98.50;;;;;;4983771;28;20052;-89
2022/08/07 07:03:36;;;;;;;5.68;5.10;;;24.40;98.60;;;;;;4981636;28;20123;-87
2022/08/07 07:06:02;;;;;;;5.38;4.65;;;24.20;99.00;;;;;;4977450;28;20125;-89
2022/08/07 07:08:28;;;;;;;5.50;4.45;;;24.40;99.30;;;;;;4960033;28;20149;-89
2022/08/07 07:10:54;;;;;;;5.32;4.90;;;24.00;98.60;;;;;;4994342;28;20363;-89
2022/08/07 07:13:27;;;;;;;5.88;3.92;;;25.20;98.90;;;;;;4993629;28;20140;-89
2022/08/07 07:15:56;;;;;;;2.70;2.50;;;25.20;97.50;;;;;;4993896;28;20057;-88
2022/08/07 07:18:43;;;;;;;2.90;2.70;;;25.00;96.50;;;;;;4977302;28;20056;-89
2022/08/07 07:21:16;;;;;;;3.38;3.08;;;24.90;97.10;;;;;;5009120;28;20432;-89
2022/08/07 07:23:42;;;;;;;;;;;25.10;96.90;;;;;;4978267;28;20042;-91
2022/08/07 07:26:10;;;;;;;4.47;2.67;;;25.10;96.90;;;;;;4993927;28;19974;-92
2022/08/07 07:28:43;;;;;;;2.85;2.65;;;25.70;96.80;;;;;;4977324;28;20057;-87
2022/08/07 07:31:18;;;;;;;2.92;2.63;;;25.70;96.20;;;;;;4993908;28;20050;-88
2022/08/07 07:33:43;;;;;;;2.70;2.45;;;25.70;97.30;;;;;;4978208;28;20085;-89
2022/08/07 07:36:09;;;;;;;4.10;2.50;;;26.30;96.50;;;;;;4977407;28;20086;-89
2022/08/07 07:38:35;;;;;;;2.80;2.60;;;25.50;96.20;;;;;;4981305;28;20044;-89
2022/08/07 07:41:03;;;;;;;3.00;2.75;;;25.70;95.90;;;;;;4996616;28;20507;-93
2022/08/07 07:43:29;;;;;;;3.80;3.50;;;25.40;96.50;;;;;;5012294;28;20048;-91
2022/08/07 07:45:55;;;;;;;3.42;3.13;;;25.70;96.40;;;;;;5013333;28;20056;-93
2022/08/07 07:48:21;;;;;;;4.45;3.63;;;26.40;96.40;;;;;;4997604;28;20049;-91
2022/08/07 07:50:47;;;;;;;3.00;2.53;;;26.60;96.50;;;;;;5004240;28;20401;-91
2022/08/07 07:53:14;;;;;;;4.35;3.10;;;25.70;95.50;;;;;;4987869;28;20114;-92
2022/08/07 07:55:39;;;;;;;3.47;3.17;;;26.30;95.80;;;;;;5003873;28;20103;-90
2022/08/07 07:58:05;;;;;;;3.85;3.47;;;27.20;95.90;;;;;;5002913;28;20057;-92
2022/08/07 08:00:31;;;;;;;3.20;2.90;;;26.60;96.10;;;;;;5005951;28;20042;-91
2022/08/07 08:03:00;;;;;;;4.88;2.83;;;26.00;96.20;;;;;;4989010;28;20069;-91
2022/08/07 08:05:26;;;;;;;2.75;2.55;;;26.20;95.60;;;;;;5003746;28;20540;-87
2022/08/07 08:07:51;;;;;;;3.20;2.83;;;25.90;95.40;;;;;;5002441;28;20041;-91
2022/08/07 08:10:17;;;;;;;3.20;2.90;;;26.20;95.60;;;;;;5005948;28;20052;-88
2022/08/07 08:12:43;;;;;;;4.60;2.40;;;25.50;96.40;;;;;;5007205;28;20152;-92
2022/08/07 08:15:09;;;;;;;3.90;2.42;;;26.60;95.40;;;;;;4994343;28;20405;-90
2022/08/07 08:17:34;;;;;;;2.38;2.10;;;26.20;95.80;;;;;;4993456;28;20131;-91
2022/08/07 08:20:03;;;;;;;2.20;2.10;;;26.10;95.20;;;;;;4994120;28;20529;-89
2022/08/07 08:27:57;;;;;;;3.03;2.42;;;26.20;95.30;;;;;;5015468;28;20034;-89
2022/08/07 08:30:23;;;;;;;2.78;2.28;;;26.60;95.30;;;;;;5009619;28;20056;-89
2022/08/07 08:32:52;;;;;;;3.47;2.60;;;26.60;95.20;;;;;;5021253;28;20059;-89
2022/08/07 08:35:25;;;;;;;3.33;2.50;;;27.10;94.80;;;;;;5016396;28;20509;-89
2022/08/07 08:37:55;;;;;;;2.20;2.10;;;27.00;95.20;;;;;;4999676;28;20058;-88
2022/08/07 08:40:33;;;;;;;4.50;2.70;;;27.40;94.70;;;;;;5021327;28;20080;-88
2022/08/07 08:43:33;;;;;;;2.58;2.38;;;27.00;94.70;;;;;;5019750;28;20121;-88
2022/08/07 08:46:20;;;;;;;2.47;2.28;;;27.50;94.00;;;;;;5022120;28;20485;-90
2022/08/07 08:49:09;;;;;;;2.90;2.70;;;27.70;94.30;;;;;;5015829;28;20046;-93
2022/08/07 08:51:35;;;;;;;3.42;2.60;;;26.70;94.60;;;;;;5015965;28;20481;-93
2022/08/07 08:54:21;;;;;;;2.90;2.70;;;27.50;94.40;;;;;;5033530;28;20049;-92
2022/08/07 08:56:48;;;;;;;2.60;2.40;;;26.90;94.50;;;;;;5017297;28;20136;-90
2022/08/07 08:59:23;;;;;;;2.85;2.28;;;26.80;94.60;;;;;;4999254;28;20053;-91
2022/08/07 09:02:17;;;;;;;2.10;1.90;;;26.70;94.70;;;;;;5031933;28;20041;-89
2022/08/07 09:04:54;;;;;;;2.35;1.90;;;27.30;94.40;;;;;;4988708;28;20052;-90
2022/08/07 09:07:35;;;;;;;2.22;2.00;;;27.00;93.50;;;;;;5015520;28;20049;-90
2022/08/07 09:10:10;;;;;;;2.25;1.83;;;27.20;93.90;;;;;;5015866;28;20139;-91
2022/08/07 09:12:47;;;;;;;3.33;2.65;;;27.40;94.00;;;;;;5015272;28;20088;-90
2022/08/07 09:15:32;;;;;;;2.67;2.30;;;26.60;94.30;;;;;;5016448;28;20206;-90
2022/08/07 09:18:22;;;;;;;2.28;1.83;;;27.10;94.70;;;;;;5031138;28;20076;-90
2022/08/07 09:20:56;;;;;;;2.10;1.90;;;27.70;94.00;;;;;;5031416;28;20064;-90
2022/08/07 09:23:36;;;;;;;3.03;2.72;;;28.10;93.60;;;;;;5033696;28;20664;-90
2022/08/07 09:26:24;;;;;;;2.17;1.98;;;27.40;94.10;;;;;;5030374;28;20056;-89
2022/08/07 09:28:54;;;;;;;2.72;2.03;;;27.70;93.50;;;;;;5019493;28;20049;-89
2022/08/07 09:31:31;;;;;;;2.38;2.17;;;25.70;93.80;;;;;;4994869;28;20481;-90
2022/08/07 09:34:03;;;;;;;2.58;2.17;;;24.80;95.00;;;;;;4982568;28;20442;-90
2022/08/07 09:36:46;;;;;;;2.25;2.03;;;26.00;94.80;;;;;;4996256;28;20065;-87
2022/08/07 09:39:26;;;;;;;2.25;2.05;;;26.10;94.60;;;;;;4979977;28;20081;-89
2022/08/07 09:42:16;;;;;;;2.40;2.25;;;27.20;94.90;;;;;;5002963;28;20081;-90
2022/08/07 09:44:54;;;;;;;2.40;2.20;;;26.50;93.70;;;;;;5028214;28;20099;-91
2022/08/07 09:47:23;;;;;;;4.07;1.95;;;27.20;93.90;;;;;;5014655;28;20112;-91
2022/08/07 09:50:30;;;;;;;3.35;2.90;;;27.70;93.80;;;;;;5030654;28;20049;-92
2022/08/07 09:53:03;;;;;;;2.28;1.70;;;28.10;93.80;;;;;;4960792;28;20054;-88
2022/08/07 09:55:47;;;;;;;2.90;2.45;;;28.40;93.40;;;;;;4996761;28;20110;-87
2022/08/07 09:58:51;;;;;;;2.63;2.05;;;27.50;93.00;;;;;;5014074;28;20098;-85
2022/08/07 10:01:47;;;;;;;3.08;2.08;;;28.00;93.70;;;;;;5013553;28;20128;-87
2022/08/07 10:04:43;;;;;;;3.38;2.00;;;27.20;93.00;;;;;;5030796;28;20045;-89
2022/08/07 10:07:43;;;;;;;2.22;1.90;;;27.40;92.80;;;;;;4998055;28;20049;-92
2022/08/07 10:10:19;;;;;;;2.75;1.98;;;27.70;93.30;;;;;;5030368;28;20037;-91
2022/08/07 10:12:54;;;;;;;1.52;1.42;;;27.80;92.40;;;;;;5030301;28;20168;-90
2022/08/07 10:15:22;;;;;;;2.58;1.90;;;28.30;91.90;;;;;;5014271;28;20057;-91
2022/08/07 10:18:10;;;;;;;2.95;1.63;;;28.10;92.00;;;;;;5028881;28;20045;-88
2022/08/07 10:21:08;;;;;;;1.90;1.80;;;27.20;92.40;;;;;;5012449;28;20041;-89
2022/08/07 10:23:40;;;;;;;2.17;1.98;;;27.40;92.60;;;;;;5016115;28;20042;-89
2022/08/07 10:26:20;;;;;;;3.05;2.40;;;27.60;92.70;;;;;;5030857;28;20050;-90
2022/08/07 10:29:22;;;;;;;2.40;2.15;;;27.80;92.60;;;;;;5013739;28;20511;-90
2022/08/07 10:32:15;;;;;;;3.42;2.00;;;27.70;92.00;;;;;;4999115;28;20065;-91
2022/08/07 10:35:09;;;;;;;1.98;1.77;;;28.10;92.20;;;;;;5012804;28;20064;-89
2022/08/07 10:38:19;;;;;;;2.97;2.05;;;28.20;91.90;;;;;;5030610;28;20045;-90
2022/08/07 10:41:08;;;;;;;3.08;1.80;;;28.10;92.60;;;;;;5029305;28;20044;-90
2022/08/07 10:44:10;;;;;;;1.98;1.70;;;28.00;92.40;;;;;;4997336;28;20064;-89
2022/08/07 10:46:41;;;;;;;2.03;1.83;;;27.40;92.40;;;;;;5009984;28;20141;-89
2022/08/07 10:49:14;;;;;;;3.03;2.10;;;26.90;92.80;;;;;;5012885;28;20065;-87
2022/08/07 10:51:52;;;;;;;2.90;1.90;;;26.50;92.90;;;;;;4995694;28;20060;-87
2022/08/07 10:54:45;;;;;;;2.35;2.15;;;27.20;92.70;;;;;;5028841;28;20128;-88
2022/08/07 10:57:37;;;;;;;1.77;1.67;;;26.60;93.10;;;;;;5012236;28;20080;-88
2022/08/07 11:00:11;;;;;;;3.00;2.22;;;27.40;92.70;;;;;;5012590;28;20403;-88
2022/08/07 11:02:43;;;;;;;6.43;4.10;;;26.90;92.40;;;;;;5011896;28;20144;-87
2022/08/07 11:05:14;;;;;;;3.15;1.90;;;27.00;92.30;;;;;;5029069;28;20180;-88
2022/08/07 11:08:03;;;;;;;2.97;1.80;;;27.70;92.30;;;;;;5011795;28;20050;-88
2022/08/07 11:10:57;;;;;;;3.13;1.80;;;27.50;92.40;;;;;;5012695;28;20457;-88
2022/08/07 11:13:35;;;;;;;2.50;1.90;;;26.80;92.30;;;;;;5012592;28;20140;-88
2022/08/07 11:16:16;;;;;;;2.00;1.90;;;27.60;91.80;;;;;;5011307;28;20061;-89
2022/08/07 11:18:49;;;;;;;2.78;1.80;;;27.20;92.00;;;;;;5011786;28;20061;-90
2022/08/07 11:21:36;;;;;;;2.65;2.00;;;27.10;92.20;;;;;;5012139;28;20454;-90
2022/08/07 11:24:17;;;;;;;1.73;1.63;;;27.10;92.50;;;;;;5013217;28;20053;-90
2022/08/07 11:27:03;;;;;;;2.10;1.90;;;26.30;92.30;;;;;;5012489;28;20080;-90
2022/08/07 11:29:49;;;;;;;1.95;1.77;;;26.00;91.90;;;;;;5011101;28;20038;-89
2022/08/07 11:32:22;;;;;;;1.92;1.83;;;25.60;92.70;;;;;;5012818;28;20049;-87
2022/08/07 11:34:48;;;;;;;;;;;25.50;91.50;;;;;;5011788;28;20051;-88
2022/08/07 11:37:49;;;;;;;1.70;1.60;;;25.50;92.40;;;;;;5030923;28;19977;-89
2022/08/07 11:40:30;;;;;;;2.13;1.38;;;25.70;91.80;;;;;;5028068;28;20382;-88
2022/08/07 11:43:03;;;;;;;1.70;1.60;;;25.80;92.20;;;;;;5009579;28;20060;-89
2022/08/07 11:45:50;;;;;;;1.98;1.73;;;25.90;92.10;;;;;;5011347;28;20128;-88
2022/08/07 11:48:53;;;;;;;1.80;1.70;;;25.80;92.00;;;;;;5026063;28;20390;-87
2022/08/07 11:51:38;;;;;;;2.17;1.80;;;25.90;91.60;;;;;;5020997;28;20045;-88
2022/08/07 11:54:07;;;;;;;2.35;1.73;;;25.80;92.70;;;;;;5028767;28;20049;-88
2022/08/07 11:56:35;;;;;;;2.35;2.15;;;25.50;92.40;;;;;;5023648;28;20065;-88
2022/08/07 11:59:20;;;;;;;2.25;2.05;;;25.10;92.20;;;;;;5023175;28;20398;-88
2022/08/07 12:01:55;;;;;;;2.05;1.77;;;25.40;93.30;;;;;;5031590;28;20144;-89
2022/08/07 12:04:24;;;;;;;1.75;1.55;;;25.40;91.90;;;;;;4998788;28;20085;-87
2022/08/07 12:06:53;;;;;;;1.50;1.40;;;25.60;91.30;;;;;;5032016;28;20064;-89
2022/08/07 12:09:27;;;;;;;1.30;1.20;;;25.80;91.10;;;;;;5014943;28;20104;-88
2022/08/07 12:12:04;;;;;;;3.38;2.08;;;25.70;91.40;;;;;;5030811;28;20057;-86
2022/08/07 12:14:31;;;;;;;2.58;1.60;;;25.60;92.20;;;;;;5014848;28;20046;-86
2022/08/07 12:17:02;;;;;;;2.40;1.80;;;25.90;91.90;;;;;;5014606;28;20052;-87
2022/08/07 12:19:59;;;;;;;1.88;1.73;;;25.80;92.20;;;;;;5014397;28;20052;-88
2022/08/07 12:22:36;;;;;;;1.77;1.60;;;25.60;92.60;;;;;;5029801;28;20110;-88
2022/08/07 12:27:59;;;;;;;1.77;1.67;;;25.00;92.70;;;;;;5017166;28;20496;-87
2022/08/07 12:30:28;;;;;;;1.80;1.70;;;25.10;92.40;;;;;;5012662;28;20124;-88
2022/08/07 12:32:57;;;;;;;2.35;2.15;;;24.90;92.80;;;;;;5014741;28;20043;-87
2022/08/07 12:35:23;;;;;;;1.73;1.63;;;25.20;92.60;;;;;;5030292;28;20050;-88
2022/08/07 12:37:50;;;;;;;1.45;1.35;;;24.80;91.70;;;;;;5015338;28;20375;-86
2022/08/07 12:40:21;;;;;;;1.77;1.65;;;25.00;92.30;;;;;;5014443;28;20049;-87
2022/08/07 12:42:47;;;;;;;1.80;1.70;;;25.00;92.40;;;;;;5013914;28;20060;-86
2022/08/07 12:45:16;;;;;;;2.15;1.75;;;25.30;92.30;;;;;;5009388;28;20037;-86
2022/08/07 12:47:59;;;;;;;2.22;1.70;;;25.20;92.10;;;;;;5013393;28;20171;-87
2022/08/07 12:50:54;;;;;;;1.50;1.40;;;25.30;92.40;;;;;;5014001;28;20065;-86
2022/08/07 12:53:34;;;;;;;2.28;1.63;;;25.20;92.30;;;;;;5009264;28;20494;-87
2022/08/07 12:56:11;;;;;;;2.35;1.63;;;25.50;92.10;;;;;;5003152;28;20056;-86
2022/08/07 12:58:39;;;;;;;2.13;1.30;;;25.50;91.50;;;;;;5012413;28;20179;-87
2022/08/07 13:01:19;;;;;;;1.77;1.67;;;25.30;91.30;;;;;;5013079;28;20555;-87
2022/08/07 13:04:18;;;;;;;2.80;1.42;;;25.30;91.30;;;;;;4997693;28;20049;-88
2022/08/07 13:06:47;;;;;;;2.97;1.60;;;25.40;91.80;;;;;;4991743;28;20045;-87
2022/08/07 13:09:37;;;;;;;2.08;1.65;;;25.30;91.70;;;;;;4993568;28;20038;-88
2022/08/07 13:12:47;;;;;;;1.85;1.70;;;25.10;93.00;;;;;;4979532;28;20496;-85
2022/08/07 13:15:35;;;;;;;1.65;1.55;;;25.40;92.80;;;;;;4967260;28;20049;-84
2022/08/07 13:18:22;;;;;;;1.40;1.30;;;25.50;93.20;;;;;;4979400;28;20059;-83